Archival Weather

Abadan

Abadan, Iran (OIAA)

Report from: Wednesday, December 6, 2023 10:00 PM UTC
Current time: Friday, February 23, 2024 6:56 PM UTC

Current weather – Weather history – Daily summaries
Weather forecast

Temperature12.0°C (53.6°F)
Dew point9.0°C (48.2°F)
Winds 4 kts (2.1 m/s, 4.6 mph) South-Southeast (150°)
Visibility4.3 mi. (7 km)
Altimeter30.03 in.Hg (1017 mB)
Relative humidity82 %
Density altitude-321 ft. (-98 m)
Flight conditions Marginal Visual Meteorological Conditions
Raw dataOIAA 062200Z 15004KT 7000 NSC 12/09 Q1017
An error has occurred. This application may no longer respond until reloaded. Reload 🗙